Latest Weather Observations for Cape Moreton

IDQ60901

Issued at 6:01 am EST Wednesday 27 September 2017 (issued every 10 minutes, with the page automatically refreshed every 10 minutes)

About weather observations | Map of Brisbane area stations | Latest observations for Brisbane area | Other Formats
Station Details ID: 040043 Name: CAPE MORETON LIGHTHOUSE Lat: -27.03 Lon: 153.47 Height: 99.9 m
Data from the previous 72 hours. | See also: Recent months at Cape Moreton
Date/Time
EST
Temp
°C
App
Temp
°C
Dew
Point
°C
Rel
Hum
%
Delta-T
°C
Wind Press
QNH
hPa
Press
MSL
hPa
Rain since
9am
mm
Dir  Spd
km/h
Gust
km/h
Spd
kts
Gust
kts
27/06:00am 20.6 16.9 17.0 80 2.2 ESE 32 37 17 20 1017.1 1016.8 0.0
27/05:30am 20.5 16.6 16.9 80 2.2 ESE 33 39 18 21 1017.1 1016.8 0.0
27/05:00am 20.4 16.5 17.0 81 2.1 ESE 33 39 18 21 1016.4 1016.1 0.0
27/04:30am 20.4 16.6 17.2 82 2.0 ESE 33 39 18 21 1016.2 1015.9 0.0
27/04:00am 20.6 17.2 17.8 84 1.7 ESE 32 37 17 20 1015.7 1015.4 0.0
27/03:30am 20.5 16.4 17.3 82 2.0 ESE 35 41 19 22 1015.9 1015.6 0.0
27/03:00am 20.5 17.1 18.1 86 1.5 ESE 33 39 18 21 1015.6 1015.3 0.0
27/02:30am 20.6 16.9 18.4 87 1.4 ESE 35 41 19 22 1015.9 1015.6 0.0
27/02:00am 20.9 17.9 19.0 89 1.2 ESE 33 39 18 21 1016.2 1015.9 0.0
27/01:30am 20.9 17.6 19.2 90 1.1 ESE 35 41 19 22 1016.2 1015.9 0.0
27/01:00am 20.7 17.1 18.6 88 1.3 ESE 35 43 19 23 1016.3 1016.0 0.0
27/12:30am 20.7 16.5 19.0 90 1.1 SE 39 46 21 25 1016.4 1016.1 0.0
27/12:00am 21.1 17.3 19.7 92 0.9 SE 39 46 21 25 1016.5 1016.2 0.0
 
Date/Time
EST
Temp
°C
App
Temp
°C
Dew
Point
°C
Rel
Hum
%
Delta-T
°C
Wind Press
QNH
hPa
Press
MSL
hPa
Rain since
9am
mm
Dir  Spd
km/h
Gust
km/h
Spd
kts
Gust
kts
26/11:30pm 20.9 16.9 19.4 91 1.0 SE 39 44 21 24 1016.6 1016.3 0.0
26/11:00pm 21.0 17.4 19.3 90 1.1 SE 37 43 20 23 1016.9 1016.6 0.0
26/10:30pm 21.0 16.9 19.1 89 1.2 SE 39 44 21 24 1016.9 1016.6 0.0
26/10:00pm 21.3 18.0 19.2 88 1.3 SE 35 43 19 23 1016.8 1016.5 0.0
26/09:30pm 21.3 18.6 19.2 88 1.3 SE 32 37 17 20 1016.8 1016.5 0.0
26/09:00pm 21.1 18.3 19.0 88 1.3 SE 32 35 17 19 1016.5 1016.2 0.0
26/08:30pm 21.2 19.1 18.9 87 1.5 ESE 28 33 15 18 1016.3 1016.0 0.0
26/08:00pm 21.0 18.1 18.8 87 1.4 ESE 32 37 17 20 1015.7 1015.4 0.0
26/07:30pm 21.2 18.2 18.6 85 1.6 ESE 32 35 17 19 1015.5 1015.2 0.0
26/07:00pm 21.2 18.2 18.6 85 1.6 ESE 32 35 17 19 1015.2 1014.9 0.0
26/06:30pm 21.3 18.8 18.9 86 1.5 ESE 30 35 16 19 1014.9 1014.6 0.0
26/06:00pm 21.3 18.9 19.0 87 1.5 ESE 30 33 16 18 1014.5 1014.2 0.0
26/05:30pm 21.4 18.2 18.6 84 1.8 ESE 33 37 18 20 1013.8 1013.5 0.0
26/05:00pm 21.6 18.3 18.4 82 2.0 SE 33 39 18 21 1013.9 1013.6 0.0
26/04:30pm 21.7 17.4 17.9 79 2.4 SE 37 43 20 23 1013.7 1013.4 0.0
26/04:00pm 21.8 16.7 17.8 78 2.5 SE 41 46 22 25 1013.4 1013.1 0.0
26/03:30pm 22.2 17.6 18.0 77 2.6 SE 39 46 21 25 1013.2 1012.9 0.0
26/03:00pm 22.3 18.4 18.7 80 2.3 SE 37 44 20 24 1013.2 1012.9 0.0
26/02:30pm 22.5 18.2 18.7 79 2.4 SE 39 46 21 25 1013.0 1012.7 0.0
26/02:00pm 22.7 18.9 19.7 83 1.9 SE 39 46 21 25 1013.2 1012.9 0.0
26/01:30pm 22.8 19.5 19.2 80 2.3 SE 35 41 19 22 1013.2 1012.9 0.0
26/01:00pm 23.3 21.6 18.2 73 3.2 SSE 24 37 13 20 1013.7 1013.4 0.0
26/12:30pm 23.4 23.4 18.1 72 3.3 S 15 20 8 11 1013.6 1013.3 0.0
26/12:00pm 23.7 25.9 19.6 78 2.6 NNW 7 15 4 8 1013.9 1013.6 0.0
26/11:30am 23.5 24.5 19.4 78 2.6 NNW 13 19 7 10 1014.2 1013.9 0.0
26/11:00am 22.9 23.7 19.9 83 1.9 NNW 15 20 8 11 1014.3 1014.0 0.0
26/10:30am 22.5 22.0 19.9 85 1.7 NW 22 28 12 15 1014.7 1014.4 0.0
26/10:00am 21.9 21.2 19.6 87 1.5 NW 22 32 12 17 1015.0 1014.7 0.0
26/09:30am 22.1 21.2 19.8 87 1.5 NW 24 33 13 18 1014.8 1014.5 0.0
26/09:00am 21.5 19.5 20.0 91 1.0 NW 30 43 16 23 1014.5 1014.2 0.0
26/08:30am 21.2 18.4 20.2 94 0.6 NNW 35 50 19 27 1013.6 1013.3 0.0
26/08:00am 20.9 18.5 20.4 97 0.3 NNW 33 44 18 24 1013.6 1013.3 0.0
26/07:30am 20.6 18.6 19.9 96 0.4 NW 30 37 16 20 1013.7 1013.4 0.0
26/07:00am 20.6 19.1 20.3 98 0.2 WNW 28 35 15 19 1013.7 1013.4 0.0
26/06:30am 20.4 19.3 20.2 99 0.1 NW 26 35 14 19 1013.3 1013.0 0.0
26/06:00am 20.3 18.4 20.1 99 0.1 NW 30 35 16 19 1013.1 1012.8 0.0
26/05:30am 20.3 18.0 20.1 99 0.1 NW 32 35 17 19 1012.7 1012.4 0.0
26/05:00am 20.2 18.6 20.0 99 0.1 NW 28 33 15 18 1012.4 1012.2 0.0
26/04:30am 20.3 18.0 20.1 99 0.1 NW 32 37 17 20 1011.9 1011.7 0.0
26/04:00am 20.4 19.7 20.2 99 0.1 NW 24 32 13 17 1011.9 1011.7 0.0
26/03:30am 20.4 18.9 20.2 99 0.1 NW 28 41 15 22 1011.3 1011.1 0.0
26/03:00am 20.5 17.3 20.3 99 0.1 NNW 37 48 20 26 1010.1 1009.9 0.0
26/02:30am 20.4 18.1 20.2 99 0.1 NNW 32 43 17 23 1010.5 1010.3 0.0
26/02:00am 20.5 17.0 20.3 99 0.1 NW 39 50 21 27 1011.1 1010.9 0.0
26/01:30am 20.5 17.7 20.3 99 0.1 NW 35 48 19 26 1011.6 1011.4 0.0
26/01:00am 20.7 18.0 20.4 98 0.2 NW 35 48 19 26 1011.6 1011.4 0.0
26/12:30am 20.7 16.1 20.0 96 0.4 NW 44 63 24 34 1011.1 1010.9 0.0
26/12:01am 20.8 16.4 20.1 96 0.5 NW 43 61 23 33 1011.1 1010.9 0.0
26/12:00am 20.9 16.9 20.2 96 0.5 NW 41 57 22 31 1011.2 1011.0 0.0
 
Date/Time
EST
Temp
°C
App
Temp
°C
Dew
Point
°C
Rel
Hum
%
Delta-T
°C
Wind Press
QNH
hPa
Press
MSL
hPa
Rain since
9am
mm
Dir  Spd
km/h
Gust
km/h
Spd
kts
Gust
kts
25/11:30pm 21.0 17.8 20.2 95 0.5 NNW 37 56 20 30 1011.4 1011.2 0.0
25/11:29pm 20.9 17.6 20.1 95 0.5 NNW 37 56 20 30 1011.4 1011.2 0.0
25/11:00pm 21.2 17.1 20.0 93 0.8 NNW 41 56 22 30 1011.2 1011.0 0.0
25/10:30pm 21.3 17.3 20.1 93 0.8 NNW 41 59 22 32 1011.2 1011.0 0.0
25/10:01pm 21.3 17.7 20.1 93 0.8 NNW 39 59 21 32 1011.6 1011.4 0.0
25/10:00pm 21.3 17.7 20.1 93 0.8 NNW 39 54 21 29 1011.7 1011.5 0.0
25/09:30pm 21.5 19.0 20.1 92 0.9 NNW 33 50 18 27 1012.1 1011.9 0.0
25/09:00pm 21.5 18.6 20.1 92 0.9 NNW 35 48 19 26 1012.0 1011.8 0.0
25/08:30pm 21.8 18.9 20.1 90 1.1 NNW 35 54 19 29 1011.9 1011.7 0.0
25/08:28pm 21.8 18.9 20.1 90 1.1 NNW 35 54 19 29 1011.9 1011.7 0.0
25/08:00pm 21.9 18.5 19.8 88 1.3 NNW 37 50 20 27 1011.7 1011.5 0.0
25/07:30pm 22.1 17.8 19.6 86 1.6 NNW 41 56 22 30 1011.4 1011.2 0.0
25/07:00pm 22.2 17.0 19.6 85 1.7 NNW 46 61 25 33 1011.0 1010.8 0.0
25/06:30pm 22.2 16.4 19.9 87 1.5 N 50 61 27 33 1010.7 1010.5 0.0
25/06:00pm 22.3 16.0 19.7 85 1.7 N 52 65 28 35 1010.6 1010.4 0.0
25/05:30pm 22.3 16.4 19.7 85 1.7 N 50 63 27 34 1010.5 1010.3 0.0
25/05:01pm 22.5 16.8 19.3 82 2.0 N 48 67 26 36 1010.2 1010.0 0.0
25/05:00pm 22.6 16.9 19.4 82 2.0 N 48 61 26 33 1010.1 1009.9 0.0
25/04:30pm 22.7 17.9 19.3 81 2.2 N 43 57 23 31 1010.1 1009.9 0.0
25/04:00pm 22.9 18.3 18.9 78 2.5 N 41 54 22 29 1010.1 1009.9 0.0
25/03:30pm 23.1 18.9 18.8 77 2.7 N 39 54 21 29 1010.2 1010.0 0.0
25/03:00pm 23.3 18.9 19.2 78 2.6 N 41 54 22 29 1010.3 1010.1 0.0
25/02:30pm 23.4 19.9 19.5 79 2.5 N 37 48 20 26 1010.8 1010.6 0.0
25/02:00pm 23.5 19.6 19.6 79 2.5 N 39 54 21 29 1011.2 1011.0 0.0
25/01:30pm 23.6 19.7 19.5 78 2.6 N 39 54 21 29 1011.5 1011.3 0.0
25/01:00pm 23.8 20.8 19.9 79 2.5 N 35 50 19 27 1012.0 1011.8 0.0
25/12:30pm 23.7 20.2 19.6 78 2.6 N 37 48 20 26 1012.4 1012.2 0.0
25/12:00pm 23.9 21.5 20.0 79 2.5 N 32 44 17 24 1013.1 1012.8 0.0
25/11:30am 23.7 21.1 19.8 79 2.5 N 33 44 18 24 1013.7 1013.4 0.0
25/11:00am 23.2 20.4 19.4 79 2.4 N 33 43 18 23 1014.3 1014.0 0.0
25/10:30am 22.8 20.2 19.6 82 2.1 NNW 32 44 17 24 1014.8 1014.5 0.0
25/10:00am 22.8 20.1 19.2 80 2.3 NNW 32 48 17 26 1015.0 1014.7 0.0
25/09:46am 22.8 20.5 19.4 81 2.2 NNW 30 48 16 26 1015.0 1014.7 0.0
25/09:30am 22.2 18.0 18.8 81 2.2 NNW 39 52 21 28 1014.7 1014.4 0.0
25/09:22am 22.2 18.4 19.0 82 2.0 NNW 37 56 20 30 1014.6 1014.3 0.0
25/09:00am 21.9 17.3 18.9 83 1.9 NNW 41 56 22 30 1014.8 1014.5 0.0
25/08:31am 21.7 17.9 18.9 84 1.8 NNW 37 56 20 30 1015.0 1014.7 0.0
25/08:30am 21.8 17.6 19.0 84 1.8 NNW 39 56 21 30 1014.9 1014.6 0.0
25/08:02am 21.4 16.5 19.0 86 1.5 NNW 43 61 23 33 1014.4 1014.1 0.0
25/08:00am 21.4 16.3 19.0 86 1.5 NNW 44 61 24 33 1014.4 1014.1 0.0
25/07:44am 21.3 17.1 18.9 86 1.5 NNW 39 57 21 31 1014.3 1014.0 0.0
25/07:30am 21.3 16.8 19.0 87 1.5 NNW 41 54 22 29 1014.1 1013.8 0.0
25/07:00am 20.9 15.8 18.7 87 1.4 NNW 43 65 23 35 1013.9 1013.6 0.0
25/06:41am 20.8 15.9 18.2 85 1.6 NNW 41 63 22 34 1013.5 1013.2 0.0
25/06:30am 21.0 16.8 18.8 87 1.4 NNW 39 56 21 30 1013.4 1013.1 0.0
25/06:15am 20.8 16.4 18.4 86 1.5 NNW 39 57 21 31 1013.1 1012.8 0.0
25/06:00am 20.9 16.1 18.3 85 1.6 NNW 41 56 22 30 1013.1 1012.8 0.0
25/05:33am 20.7 17.2 18.8 89 1.2 NW 35 54 19 29 1012.9 1012.6 0.0
25/05:30am 20.8 17.1 19.1 90 1.1 NNW 37 52 20 28 1012.9 1012.6 0.0
25/05:02am 20.7 17.4 19.2 91 1.0 NNW 35 54 19 29 1012.3 1012.1 0.0
25/05:00am 20.6 16.8 18.9 90 1.1 NNW 37 54 20 29 1012.3 1012.1 0.0
25/04:34am 20.7 17.3 19.0 90 1.1 NNW 35 54 19 29 1012.2 1012.0 0.0
25/04:30am 20.6 16.8 18.9 90 1.1 NNW 37 54 20 29 1012.2 1012.0 0.0
25/04:00am 20.6 17.0 19.3 92 0.8 NNW 37 56 20 30 1011.8 1011.6 0.0
25/03:30am 20.6 16.5 19.1 91 0.9 NNW 39 59 21 32 1011.4 1011.2 0.0
25/03:00am 20.6 15.7 19.1 91 0.9 NNW 43 63 23 34 1011.7 1011.5 0.0
25/02:33am 20.6 16.9 19.1 91 0.9 NW 37 59 20 32 1011.8 1011.6 0.0
25/02:30am 20.7 16.6 19.2 91 1.0 NNW 39 54 21 29 1011.8 1011.6 0.0
25/02:11am 20.8 16.3 19.1 90 1.1 NNW 41 59 22 32 1011.6 1011.4 0.0
25/02:00am 20.8 16.6 18.9 89 1.2 NW 39 56 21 30 1011.8 1011.6 0.0
25/01:45am 20.9 17.2 19.2 90 1.1 NNW 37 56 20 30 1011.6 1011.4 0.0
25/01:30am 20.9 16.5 19.2 90 1.1 NNW 41 57 22 31 1011.4 1011.2 0.0
25/01:00am 20.9 16.8 19.2 90 1.1 NNW 39 57 21 31 1011.7 1011.5 0.0
25/12:40am 21.0 16.9 19.1 89 1.2 NNW 39 57 21 31 1012.0 1011.8 0.0
25/12:30am 21.0 16.1 19.1 89 1.2 NNW 43 57 23 31 1012.2 1012.0 0.0
25/12:00am 21.1 15.8 19.4 90 1.1 NNW 46 63 25 34 1012.2 1012.0 0.0
 
Date/Time
EST
Temp
°C
App
Temp
°C
Dew
Point
°C
Rel
Hum
%
Delta-T
°C
Wind Press
QNH
hPa
Press
MSL
hPa
Rain since
9am
mm
Dir  Spd
km/h
Gust
km/h
Spd
kts
Gust
kts
24/11:30pm 21.1 16.4 19.4 90 1.1 NNW 43 61 23 33 1012.2 1012.0 0.0
24/11:24pm 21.0 16.2 19.3 90 1.1 NNW 43 61 23 33 1012.3 1012.1 0.0
24/11:00pm 21.2 16.2 20.0 93 0.8 NNW 46 61 25 33 1012.4 1012.2 0.0
24/10:41pm 21.1 15.9 19.6 91 1.0 NNW 46 65 25 35 1012.5 1012.3 0.0
24/10:30pm 21.3 16.2 19.8 91 1.0 NNW 46 61 25 33 1012.7 1012.4 0.0
24/10:00pm 21.3 15.9 19.2 88 1.3 NNW 46 65 25 35 1012.7 1012.4 0.0
24/09:37pm 21.2 16.4 19.3 89 1.2 NNW 43 61 23 33 1012.8 1012.5 0.0
24/09:30pm 21.3 17.0 19.6 90 1.1 NNW 41 56 22 30 1012.9 1012.6 0.0
24/09:00pm 21.4 16.8 19.7 90 1.1 NNW 43 57 23 31 1012.8 1012.5 0.0
24/08:30pm 21.5 15.9 19.6 89 1.2 NNW 48 61 26 33 1012.5 1012.3 0.0
24/08:00pm 21.6 15.1 19.2 86 1.5 NNW 52 67 28 36 1012.1 1011.9 0.0
24/07:30pm 21.8 14.3 18.8 83 1.9 N 56 70 30 38 1011.5 1011.3 0.0
24/07:14pm 21.9 14.5 18.9 83 1.9 N 56 74 30 40 1011.2 1011.0 0.0
24/07:00pm 21.9 14.0 19.1 84 1.8 N 59 72 32 39 1011.0 1010.8 0.0
24/06:30pm 22.0 14.8 19.4 85 1.7 N 56 72 30 39 1010.7 1010.5 0.0
24/06:00pm 22.1 14.7 19.3 84 1.8 N 57 72 31 39 1010.4 1010.2 0.0
24/05:30pm 22.2 15.3 19.2 83 1.9 N 54 69 29 37 1010.2 1010.0 0.0
24/05:00pm 22.3 15.8 19.3 83 1.9 N 52 65 28 35 1009.9 1009.7 0.0
24/04:30pm 22.6 16.1 19.2 81 2.2 N 52 69 28 37 1009.7 1009.5 0.0
24/04:03pm 22.8 16.6 19.0 79 2.4 N 50 69 27 37 1009.7 1009.5 0.0
24/04:00pm 22.8 16.6 19.0 79 2.4 N 50 65 27 35 1009.7 1009.5 0.0
24/03:34pm 22.9 16.5 18.7 77 2.7 N 50 69 27 37 1009.7 1009.5 0.0
24/03:30pm 23.0 16.6 18.7 77 2.7 N 50 67 27 36 1009.7 1009.5 0.0
24/03:00pm 23.1 16.7 18.6 76 2.9 N 50 65 27 35 1009.8 1009.6 0.0
24/02:30pm 23.2 16.8 18.7 76 2.9 N 50 65 27 35 1010.0 1009.8 0.0
24/02:00pm 23.2 17.8 19.2 78 2.6 N 46 61 25 33 1010.5 1010.3 0.0
24/01:30pm 23.2 17.9 19.4 79 2.4 N 46 61 25 33 1011.0 1010.8 0.0
24/01:00pm 23.2 18.3 19.4 79 2.4 N 44 59 24 32 1011.4 1011.2 0.0
24/12:30pm 23.4 18.7 19.5 79 2.5 N 43 54 23 29 1011.9 1011.7 0.0
24/12:00pm 23.2 18.9 19.6 80 2.3 N 41 54 22 29 1012.7 1012.4 0.0
24/11:30am 23.0 18.8 19.8 82 2.1 N 41 50 22 27 1013.4 1013.1 0.0
24/11:00am 22.6 18.4 19.8 84 1.8 N 41 50 22 27 1013.8 1013.5 0.0
24/10:30am 22.4 18.7 19.2 82 2.0 NNW 37 48 20 26 1014.3 1014.0 0.0
24/10:00am 22.2 19.0 19.4 84 1.8 NNW 35 48 19 26 1014.5 1014.2 0.0
24/09:34am 21.9 18.6 19.3 85 1.7 NNW 35 54 19 29 1014.7 1014.4 0.0
24/09:30am 21.8 17.7 19.2 85 1.7 NNW 39 56 21 30 1014.7 1014.4 0.0
24/09:00am 21.7 18.1 19.4 87 1.5 NNW 37 52 20 28 1014.7 1014.4 0.0
24/08:47am 21.4 17.6 19.0 86 1.5 NNW 37 56 20 30 1014.6 1014.3 0.0
24/08:30am 21.3 17.6 19.2 88 1.3 NNW 37 54 20 29 1014.6 1014.3 0.0
24/08:00am 20.9 17.6 19.2 90 1.1 NNW 35 48 19 26 1014.6 1014.3 0.0
24/07:30am 20.7 16.8 18.8 89 1.2 NNW 37 52 20 28 1014.5 1014.2 0.0
24/07:00am 20.5 17.1 19.0 91 0.9 NNW 35 52 19 28 1014.4 1014.1 0.0
24/06:30am 20.1 16.2 18.8 92 0.8 NNW 37 52 20 28 1014.0 1013.7 0.0

Latest Capital City Observations: Canberra | Sydney | Melbourne | Brisbane | Adelaide | Perth | Hobart | Darwin

Other Formats:

Comma delimited format used in spreadsheet applications
http://www.bom.gov.au/fwo/IDQ60901/IDQ60901.94594.axf

JavaScript Object Notation format (JSON) in row-major order
http://www.bom.gov.au/fwo/IDQ60901/IDQ60901.94594.json